Results: 2018 Fyn ITU Duathlon World Championships | 55-59 Female AG Sprint
Fyn, Denmark • 08 Jul, 2018
Pos First Name Last Name YOB Country Start
Num
Time Run T1 Bike T2 Run
1 Birgit Zimmer 1962 GER 2621 01:11:40 00:22:05 00:01:37 00:34:30 00:02:41 00:10:47
2 Amanda Young 1963 GBR 2619 01:12:31 00:21:53 00:02:00 00:35:58 00:02:22 00:10:18
3 Sarah Gill 1963 GBR 2614 01:12:36 00:22:12 00:01:54 00:35:44 00:02:21 00:10:25
4 Jodie Bolt 1963 USA 2627 01:14:02 00:22:12 00:02:14 00:36:13 00:02:44 00:10:39
5 Moira Glen 1963 GBR 2615 01:14:12 00:22:16 00:02:04 00:37:08 00:02:18 00:10:26
6 Tracy Ford 1962 GBR 2613 01:14:24 00:23:22 00:02:00 00:36:07 00:02:17 00:10:38
7 Else Grønkjær-Bloch 1959 DEN 2609 01:14:45 00:23:28 00:02:12 00:35:33 00:02:40 00:10:52
8 Suzanne Cordes 1959 USA 2628 01:14:50 00:22:26 00:01:53 00:37:16 00:02:34 00:10:41
9 Claire Jackson 1962 GBR 2617 01:15:10 00:24:03 00:02:07 00:35:12 00:02:26 00:11:22
10 Kirsten Mørch 1959 DEN 2611 01:17:44 00:24:13 00:02:30 00:36:56 00:02:52 00:11:13
11 Clare E Wyngard 1961 GBR 2618 01:17:45 00:25:09 00:02:11 00:36:08 00:02:47 00:11:30
12 Ann Cook 1960 GBR 2612 01:19:00 00:23:40 00:02:08 00:38:47 00:02:51 00:11:34
13 Susan Hunt 1961 GBR 2616 01:20:36 00:26:01 00:02:33 00:37:08 00:03:17 00:11:37
14 Susanne Apfel 1960 GER 2620 01:21:20 00:26:20 00:01:58 00:38:17 00:02:35 00:12:10
15 Noella Buchanan 1962 AUS 2629 01:21:24 00:25:58 00:01:53 00:38:45 00:02:31 00:12:17
16 Maria Isabel Rachel Ibarra Erreguin 1962 MEX 2623 01:27:05 00:26:29 00:02:41 00:42:41 00:03:05 00:12:09
17 Miriam Limpens 1962 NED 2624 01:28:36 00:26:16 00:02:02 00:44:19 00:02:51 00:13:08
18 Anne Whineray-Smith 1961 NZL 2625 01:28:58 00:26:55 00:02:58 00:41:53 00:03:21 00:13:51
19 Cecilia Jertborn 1963 SWE 2626 01:29:52 00:29:31 00:02:12 00:41:03 00:03:31 00:13:35
20 Lene Heck 1960 DEN 2610 01:37:44 00:31:09 00:03:04 00:44:01 00:03:45 00:15:45
21 Debbie Cass 1959 CAN 2630 01:40:26 00:31:34 00:03:11 00:47:18 00:03:45 00:14:38
Program notes:

Technical Delegate: Duncan Hough/GBR. Head Referee: Ulf Schuetze/CAN.
Competition Jury: Duncan Hough/GBR, Brian Hinton/AUS, Morten Fenger/DEN.
Distances: Run 5.5km (3 laps), Bike 19.9km (1 lap), Run 2.5km (1 lap)
Air temperature: 16.6C; Humidity: 52.7%